createdAt,value
2023-04-08T00:00:51.193Z,4.33
2023-04-08T00:03:59.531Z,5.10
2023-04-08T00:07:07.970Z,5.20
2023-04-08T00:10:16.364Z,4.30
2023-04-08T00:13:27.215Z,4.30
2023-04-08T00:16:35.728Z,5.07
2023-04-08T00:19:44.590Z,4.70
2023-04-08T00:22:52.986Z,4.77
2023-04-08T00:26:01.449Z,4.57
2023-04-08T00:29:11.157Z,5.13
2023-04-08T00:32:19.639Z,4.50
2023-04-08T00:35:28.278Z,5.03
2023-04-08T00:38:36.426Z,4.97
2023-04-08T00:41:45.699Z,4.87
2023-04-08T00:44:56.017Z,5.20
2023-04-08T00:48:06.295Z,4.63
2023-04-08T00:51:14.645Z,4.77
2023-04-08T00:54:23.216Z,5.33
2023-04-08T00:57:31.728Z,3.83
2023-04-08T01:00:52.897Z,4.53
2023-04-08T01:04:15.413Z,4.20
2023-04-08T01:07:30.356Z,4.87
2023-04-08T01:10:42.904Z,4.93
2023-04-08T01:13:56.187Z,4.57
2023-04-08T01:17:07.354Z,4.97
2023-04-08T01:20:18.795Z,4.90
2023-04-08T01:24:00.623Z,4.50
2023-04-08T01:27:14.601Z,5.57
2023-04-08T01:30:26.202Z,4.47
2023-04-08T01:33:35.038Z,5.03
2023-04-08T01:36:47.843Z,4.37
2023-04-08T01:39:58.379Z,5.00
2023-04-08T01:43:11.987Z,5.17
2023-04-08T01:46:23.051Z,4.50
2023-04-08T01:49:32.119Z,4.50
2023-04-08T01:52:44.712Z,4.83
2023-04-08T01:56:03.758Z,4.43
2023-04-08T01:59:17.894Z,5.10
2023-04-08T02:02:31.556Z,3.90
2023-04-08T02:05:40.918Z,4.53
2023-04-08T02:08:52.101Z,4.50
2023-04-08T02:12:03.013Z,5.03
2023-04-08T02:15:13.585Z,4.83
2023-04-08T02:18:28.031Z,5.00
2023-04-08T02:21:47.537Z,4.47
2023-04-08T02:24:56.819Z,4.97
2023-04-08T02:28:10.684Z,4.63
2023-04-08T02:31:21.935Z,5.07
2023-04-08T02:34:31.990Z,4.53
2023-04-08T02:37:42.073Z,4.60
2023-04-08T02:40:52.057Z,5.47
2023-04-08T02:44:00.563Z,4.43
2023-04-08T02:47:10.168Z,4.47
2023-04-08T02:50:18.523Z,4.97
2023-04-08T02:53:27.663Z,4.60
2023-04-08T02:56:35.927Z,5.37
2023-04-08T02:59:44.031Z,5.20
2023-04-08T03:02:58.095Z,5.17
2023-04-08T03:06:06.402Z,4.70
2023-04-08T03:09:14.864Z,5.53
2023-04-08T03:12:23.454Z,5.30
2023-04-08T03:15:31.641Z,5.80
2023-04-08T03:18:41.393Z,5.37
2023-04-08T03:21:49.568Z,5.37
2023-04-08T03:24:57.652Z,5.70
2023-04-08T03:28:06.036Z,6.30
2023-04-08T03:31:14.441Z,5.87
2023-04-08T03:34:23.977Z,6.00
2023-04-08T03:37:32.245Z,6.13
2023-04-08T03:40:40.331Z,6.30
2023-04-08T03:43:48.522Z,5.50
2023-04-08T03:46:56.690Z,6.13
2023-04-08T03:50:07.222Z,5.70
2023-04-08T03:53:15.635Z,5.60
2023-04-08T03:56:25.106Z,4.97
2023-04-08T03:59:33.950Z,5.77
2023-04-08T04:02:42.607Z,6.40
2023-04-08T04:05:52.219Z,5.00
2023-04-08T04:09:00.425Z,5.77
2023-04-08T04:12:08.581Z,5.60
2023-04-08T04:15:16.895Z,5.77
2023-04-08T04:18:25.089Z,5.27
2023-04-08T04:21:34.525Z,4.40
2023-04-08T04:24:42.600Z,6.03
2023-04-08T04:27:50.732Z,5.87
2023-04-08T04:30:58.825Z,6.50
2023-04-08T04:34:06.940Z,5.87
2023-04-08T04:37:17.183Z,5.70
2023-04-08T04:40:25.439Z,5.77
2023-04-08T04:43:33.779Z,6.37
2023-04-08T04:46:41.898Z,6.47
2023-04-08T04:49:50.352Z,6.77
2023-04-08T04:52:59.774Z,6.83
2023-04-08T04:56:08.390Z,6.60
2023-04-08T04:59:16.583Z,7.03
2023-04-08T05:02:24.809Z,7.10
2023-04-08T05:05:33.056Z,7.33
2023-04-08T05:08:43.069Z,7.50
2023-04-08T05:11:51.246Z,6.90
2023-04-08T05:15:00.717Z,6.20
2023-04-08T05:18:08.966Z,7.10
2023-04-08T05:21:18.093Z,6.43
2023-04-08T05:24:30.056Z,7.03
2023-04-08T05:27:38.469Z,7.90
2023-04-08T05:30:52.006Z,6.53
2023-04-08T05:34:00.236Z,6.53
2023-04-08T05:37:08.488Z,6.87
2023-04-08T05:40:18.136Z,6.23
2023-04-08T05:43:26.372Z,7.23
2023-04-08T05:46:34.553Z,5.97
2023-04-08T05:49:43.526Z,6.57
2023-04-08T05:52:51.683Z,6.23
2023-04-08T05:56:01.631Z,5.27
2023-04-08T05:59:09.694Z,6.20
2023-04-08T06:02:17.987Z,6.07
2023-04-08T06:05:26.646Z,5.53
2023-04-08T06:08:34.818Z,5.20
2023-04-08T06:11:44.542Z,5.83
2023-04-08T06:14:56.831Z,5.50
2023-04-08T06:18:06.215Z,5.13
2023-04-08T06:21:14.651Z,5.70
2023-04-08T06:24:23.854Z,6.83
2023-04-08T06:27:33.696Z,6.63
2023-04-08T06:30:41.969Z,7.00
2023-04-08T06:33:50.429Z,6.03
2023-04-08T06:36:58.697Z,6.03
2023-04-08T06:40:09.164Z,6.10
2023-04-08T06:43:18.757Z,6.03
2023-04-08T06:46:27.219Z,5.47
2023-04-08T06:49:35.348Z,6.03
2023-04-08T06:52:43.495Z,5.87
2023-04-08T06:55:51.808Z,5.57
2023-04-08T06:59:01.320Z,6.07
2023-04-08T07:02:09.562Z,6.03
2023-04-08T07:05:18.491Z,6.77
2023-04-08T07:08:27.280Z,6.73
2023-04-08T07:11:35.524Z,7.00
2023-04-08T07:14:45.114Z,7.40
2023-04-08T07:17:53.394Z,8.10
2023-04-08T07:21:01.963Z,7.37
2023-04-08T07:24:10.587Z,8.47
2023-04-08T07:27:19.007Z,8.87
2023-04-08T07:30:28.544Z,9.50
2023-04-08T07:33:36.731Z,10.40
2023-04-08T07:36:44.945Z,10.27
2023-04-08T07:39:53.007Z,9.70
2023-04-08T07:43:01.074Z,10.33
2023-04-08T07:46:10.630Z,9.27
2023-04-08T07:49:18.970Z,9.67
2023-04-08T07:52:27.234Z,10.07
2023-04-08T07:55:35.657Z,9.53
2023-04-08T07:58:44.137Z,9.30
2023-04-08T08:01:55.859Z,8.47
2023-04-08T08:05:04.350Z,8.67
2023-04-08T08:08:12.687Z,9.20
2023-04-08T08:11:21.286Z,9.30
2023-04-08T08:14:29.405Z,9.87
2023-04-08T08:17:38.921Z,10.77
2023-04-08T08:20:47.131Z,10.33
2023-04-08T08:23:56.834Z,10.57
2023-04-08T08:27:06.531Z,10.00
2023-04-08T08:30:14.918Z,9.47
2023-04-08T08:33:24.500Z,10.43
2023-04-08T08:36:33.558Z,10.37
2023-04-08T08:39:42.936Z,9.60
2023-04-08T08:42:52.554Z,9.90
2023-04-08T08:46:00.991Z,8.70
2023-04-08T08:49:10.565Z,9.30
2023-04-08T08:52:19.206Z,9.23
2023-04-08T08:55:46.780Z,8.33
2023-04-08T08:58:55.350Z,7.37
2023-04-08T09:02:03.562Z,10.03
2023-04-08T09:05:13.150Z,9.53
2023-04-08T09:08:29.661Z,10.50
2023-04-08T09:11:39.764Z,8.97
2023-04-08T09:14:48.331Z,10.33
2023-04-08T09:17:56.653Z,10.10
2023-04-08T09:21:08.127Z,9.27
2023-04-08T09:24:30.924Z,10.40
2023-04-08T09:27:38.995Z,11.03
2023-04-08T09:30:47.903Z,11.43
2023-04-08T09:33:58.677Z,10.10
2023-04-08T09:37:08.153Z,11.07
2023-04-08T09:40:17.425Z,11.70
2023-04-08T09:43:27.901Z,10.03
2023-04-08T09:46:48.544Z,11.33
2023-04-08T09:50:03.131Z,10.90
2023-04-08T09:53:23.295Z,11.30
2023-04-08T09:56:42.911Z,10.87
2023-04-08T10:00:05.345Z,10.20
2023-04-08T10:03:30.993Z,11.47
2023-04-08T10:06:42.113Z,11.73
2023-04-08T10:09:52.507Z,10.83
2023-04-08T10:13:00.993Z,11.57
2023-04-08T10:16:24.593Z,10.73
2023-04-08T10:19:41.709Z,11.60
2023-04-08T10:22:50.266Z,10.53
2023-04-08T10:25:59.744Z,10.20
2023-04-08T10:29:40.740Z,11.10
2023-04-08T10:32:49.307Z,10.30
2023-04-08T10:36:11.592Z,10.43
2023-04-08T10:39:20.677Z,10.53
2023-04-08T10:42:30.943Z,10.00
2023-04-08T10:45:40.544Z,10.53
2023-04-08T10:49:01.544Z,9.67
2023-04-08T10:52:10.570Z,9.50
2023-04-08T10:55:23.649Z,9.87
2023-04-08T10:58:33.859Z,9.87
2023-04-08T11:01:44.574Z,10.37
2023-04-08T11:04:55.982Z,9.93
2023-04-08T11:08:04.487Z,10.73
2023-04-08T11:11:13.218Z,10.13
2023-04-08T11:14:23.506Z,9.30
2023-04-08T11:17:31.860Z,9.47
2023-04-08T11:20:40.337Z,9.83
2023-04-08T11:23:51.829Z,10.33
2023-04-08T11:27:00.910Z,9.37
2023-04-08T11:30:12.468Z,10.33
2023-04-08T11:33:21.381Z,10.33
2023-04-08T11:36:31.398Z,10.30
2023-04-08T11:39:44.039Z,11.50
2023-04-08T11:42:54.064Z,10.70
2023-04-08T11:46:12.544Z,9.93
2023-04-08T11:49:21.766Z,14.30
2023-04-08T11:52:47.675Z,12.10
2023-04-08T11:55:56.649Z,11.83
2023-04-08T11:59:04.993Z,11.90
2023-04-08T12:02:14.627Z,12.23
2023-04-08T12:05:22.877Z,12.77
2023-04-08T12:08:31.791Z,13.00
2023-04-08T12:11:40.402Z,12.43
2023-04-08T12:14:48.712Z,11.87
2023-04-08T12:17:58.343Z,11.97
2023-04-08T12:21:06.781Z,13.80
2023-04-08T12:24:16.353Z,12.77
2023-04-08T12:27:24.869Z,12.63
2023-04-08T12:30:33.101Z,12.23
2023-04-08T12:33:42.698Z,12.73
2023-04-08T12:36:51.156Z,13.50
2023-04-08T12:39:59.238Z,12.23
2023-04-08T12:43:08.984Z,11.67
2023-04-08T12:46:17.228Z,11.87
2023-04-08T12:49:27.990Z,10.60
2023-04-08T12:52:36.261Z,10.40
2023-04-08T12:55:45.069Z,10.33
2023-04-08T12:58:53.250Z,10.17
2023-04-08T13:02:01.430Z,8.43
2023-04-08T13:05:11.583Z,9.10
2023-04-08T13:08:20.059Z,8.43
2023-04-08T13:11:28.287Z,9.90
2023-04-08T13:14:38.271Z,9.27
2023-04-08T13:17:46.652Z,10.43
2023-04-08T13:20:58.123Z,10.20
2023-04-08T13:24:07.244Z,11.23
2023-04-08T13:27:16.152Z,11.73
2023-04-08T13:30:25.144Z,11.97
2023-04-08T13:33:33.446Z,11.77
2023-04-08T13:36:48.406Z,12.70
2023-04-08T13:39:56.895Z,12.17
2023-04-08T13:43:06.265Z,10.83
2023-04-08T13:46:14.955Z,11.20
2023-04-08T13:49:23.822Z,10.33
2023-04-08T13:52:33.857Z,11.03
2023-04-08T13:55:42.977Z,10.00
2023-04-08T13:58:57.157Z,8.60
2023-04-08T14:02:06.218Z,9.43
2023-04-08T14:05:14.820Z,9.10
2023-04-08T14:08:26.136Z,9.83
2023-04-08T14:11:34.559Z,9.73
2023-04-08T14:14:46.469Z,8.83
2023-04-08T14:17:55.772Z,10.07
2023-04-08T14:21:05.408Z,8.93
2023-04-08T14:24:15.558Z,8.03
2023-04-08T14:27:24.199Z,8.90
2023-04-08T14:30:33.391Z,8.47
2023-04-08T14:33:42.222Z,10.17
2023-04-08T14:36:50.653Z,9.47
2023-04-08T14:40:00.959Z,8.53
2023-04-08T14:43:09.038Z,8.30
2023-04-08T14:46:17.700Z,9.37
2023-04-08T14:49:25.866Z,8.70
2023-04-08T14:52:34.084Z,8.87
2023-04-08T14:55:43.464Z,9.07
2023-04-08T14:58:51.685Z,9.83
2023-04-08T15:02:00.025Z,9.60
2023-04-08T15:05:09.504Z,9.60
2023-04-08T15:08:17.740Z,9.47
2023-04-08T15:11:27.505Z,9.23
2023-04-08T15:14:35.583Z,8.97
2023-04-08T15:17:43.700Z,9.20
2023-04-08T15:20:52.177Z,9.53
2023-04-08T15:24:00.382Z,9.43
2023-04-08T15:27:10.326Z,9.27
2023-04-08T15:30:24.201Z,9.23
2023-04-08T15:33:32.976Z,8.43
2023-04-08T15:36:41.170Z,9.37
2023-04-08T15:39:49.380Z,8.90
2023-04-08T15:42:59.144Z,8.47
2023-04-08T15:46:07.351Z,9.70
2023-04-08T15:49:16.771Z,9.77
2023-04-08T15:52:25.747Z,9.40
2023-04-08T15:55:40.065Z,11.47
2023-04-08T15:58:49.748Z,10.87
2023-04-08T16:01:58.413Z,10.43
2023-04-08T16:05:07.756Z,9.37
2023-04-08T16:08:16.253Z,9.37
2023-04-08T16:11:25.278Z,10.63
2023-04-08T16:14:34.980Z,9.70
2023-04-08T16:17:43.187Z,11.00
2023-04-08T16:20:51.440Z,8.83
2023-04-08T16:23:59.841Z,10.30
2023-04-08T16:27:08.338Z,11.00
2023-04-08T16:30:18.137Z,10.53
2023-04-08T16:33:29.980Z,9.47
2023-04-08T16:36:38.185Z,10.03
2023-04-08T16:39:46.601Z,10.77
2023-04-08T16:42:55.036Z,9.77
2023-04-08T16:46:12.900Z,10.83
2023-04-08T16:49:21.110Z,10.90
2023-04-08T16:52:29.198Z,10.93
2023-04-08T16:55:38.392Z,10.33
2023-04-08T16:58:46.541Z,10.97
2023-04-08T17:01:57.179Z,10.97
2023-04-08T17:05:06.444Z,10.13
2023-04-08T17:08:14.689Z,12.13
2023-04-08T17:11:23.098Z,12.27
2023-04-08T17:14:31.296Z,10.90
2023-04-08T17:17:41.244Z,11.40
2023-04-08T17:20:49.615Z,11.60
2023-04-08T17:23:57.689Z,12.60
2023-04-08T17:27:06.050Z,11.57
2023-04-08T17:30:14.855Z,12.10
2023-04-08T17:33:24.267Z,13.17
2023-04-08T17:36:32.347Z,13.17
2023-04-08T17:39:41.171Z,13.53
2023-04-08T17:42:49.341Z,15.50
2023-04-08T17:46:02.334Z,15.17
2023-04-08T17:49:14.076Z,14.70
2023-04-08T17:52:22.244Z,15.60
2023-04-08T17:55:30.803Z,13.97
2023-04-08T17:58:38.910Z,14.93
2023-04-08T18:01:47.401Z,16.10
2023-04-08T18:04:56.877Z,15.67
2023-04-08T18:08:05.012Z,14.67
2023-04-08T18:11:13.315Z,12.20
2023-04-08T18:14:21.437Z,13.27
2023-04-08T18:17:29.587Z,15.83
2023-04-08T18:20:39.160Z,15.07
2023-04-08T18:23:47.830Z,17.17
2023-04-08T18:27:04.097Z,15.40
2023-04-08T18:30:13.845Z,15.87
2023-04-08T18:33:22.120Z,15.17
2023-04-08T18:36:31.977Z,17.00
2023-04-08T18:39:41.699Z,16.57
2023-04-08T18:42:49.898Z,14.27
2023-04-08T18:45:58.329Z,15.73
2023-04-08T18:49:06.624Z,15.53
2023-04-08T18:52:16.863Z,14.73
2023-04-08T18:55:26.193Z,15.63
2023-04-08T18:58:34.923Z,15.23
2023-04-08T19:01:43.623Z,15.00
2023-04-08T19:04:52.093Z,14.67
2023-04-08T19:08:02.220Z,14.83
2023-04-08T19:11:10.660Z,15.07
2023-04-08T19:14:18.795Z,13.67
2023-04-08T19:17:27.212Z,14.57
2023-04-08T19:20:35.456Z,16.10
2023-04-08T19:23:46.442Z,17.13
2023-04-08T19:26:54.652Z,16.80
2023-04-08T19:30:03.058Z,17.37
2023-04-08T19:33:11.141Z,16.07
2023-04-08T19:36:19.430Z,16.90
2023-04-08T19:39:29.365Z,17.03
2023-04-08T19:42:37.873Z,15.00
2023-04-08T19:45:46.436Z,15.70
2023-04-08T19:48:56.179Z,16.73
2023-04-08T19:52:04.469Z,15.17
2023-04-08T19:55:14.873Z,14.50
2023-04-08T19:58:23.959Z,12.40
2023-04-08T20:01:35.812Z,11.20
2023-04-08T20:04:45.702Z,11.17
2023-04-08T20:07:54.406Z,10.47
2023-04-08T20:11:04.770Z,11.07
2023-04-08T20:14:13.206Z,9.07
2023-04-08T20:17:22.068Z,8.00
2023-04-08T20:20:30.568Z,8.90
2023-04-08T20:23:44.026Z,9.37
2023-04-08T20:26:53.577Z,8.53
2023-04-08T20:30:01.652Z,9.17
2023-04-08T20:33:10.089Z,8.00
2023-04-08T20:36:18.254Z,8.47
2023-04-08T20:39:30.130Z,7.67
2023-04-08T20:42:39.914Z,8.73
2023-04-08T20:45:48.213Z,8.93
2023-04-08T20:48:56.322Z,8.50
2023-04-08T20:52:04.932Z,8.10
2023-04-08T20:55:13.211Z,7.50
2023-04-08T20:58:22.822Z,7.97
2023-04-08T21:01:31.409Z,7.60
2023-04-08T21:04:39.795Z,7.30
2023-04-08T21:07:48.079Z,7.70
2023-04-08T21:10:56.423Z,7.73
2023-04-08T21:14:06.034Z,7.20
2023-04-08T21:17:14.327Z,7.40
2023-04-08T21:20:22.633Z,6.93
2023-04-08T21:23:30.906Z,7.97
2023-04-08T21:26:39.181Z,6.87
2023-04-08T21:29:53.490Z,7.17
2023-04-08T21:33:01.754Z,6.73
2023-04-08T21:36:10.368Z,7.03
2023-04-08T21:39:18.543Z,7.47
2023-04-08T21:42:28.846Z,7.40
2023-04-08T21:45:38.331Z,7.70
2023-04-08T21:48:46.741Z,7.40
2023-04-08T21:51:54.811Z,6.90
2023-04-08T21:55:03.715Z,6.43
2023-04-08T21:58:12.430Z,7.17
2023-04-08T22:01:22.315Z,6.80
2023-04-08T22:04:30.440Z,6.20
2023-04-08T22:07:38.840Z,6.97
2023-04-08T22:10:47.025Z,6.93
2023-04-08T22:13:55.452Z,6.47
2023-04-08T22:17:05.575Z,7.57
2023-04-08T22:20:13.991Z,6.57
2023-04-08T22:23:22.455Z,7.90
2023-04-08T22:26:30.787Z,9.07
2023-04-08T22:29:38.925Z,7.47
2023-04-08T22:32:48.740Z,8.40
2023-04-08T22:35:58.477Z,7.50
2023-04-08T22:39:06.586Z,8.90
2023-04-08T22:42:14.774Z,8.20
2023-04-08T22:45:23.443Z,8.27
2023-04-08T22:48:33.534Z,7.17
2023-04-08T22:51:42.877Z,7.77
2023-04-08T22:54:51.926Z,7.80
2023-04-08T22:58:00.277Z,7.93
2023-04-08T23:01:13.796Z,7.43
2023-04-08T23:04:23.626Z,7.83
2023-04-08T23:07:32.384Z,7.87
2023-04-08T23:10:40.758Z,7.30
2023-04-08T23:13:48.958Z,8.50
2023-04-08T23:16:57.402Z,7.83
2023-04-08T23:20:09.559Z,8.50
2023-04-08T23:23:17.962Z,7.27
2023-04-08T23:26:26.322Z,7.37
2023-04-08T23:29:34.751Z,6.57
2023-04-08T23:32:43.239Z,6.30
2023-04-08T23:35:52.764Z,6.37
2023-04-08T23:39:01.099Z,5.57
2023-04-08T23:42:10.199Z,6.17
2023-04-08T23:45:18.446Z,6.60
2023-04-08T23:48:26.819Z,7.00
2023-04-08T23:51:38.869Z,6.83
2023-04-08T23:54:51.260Z,6.90
2023-04-08T23:57:59.298Z,8.13
